createdAt,value
2019-04-04T00:01:47.793Z,22.22
2019-04-04T00:04:17.428Z,22.21
2019-04-04T00:06:47.733Z,22.23
2019-04-04T00:09:18.092Z,22.21
2019-04-04T00:11:48.350Z,22.20
2019-04-04T00:14:19.867Z,22.22
2019-04-04T00:16:50.180Z,22.20
2019-04-04T00:19:20.412Z,22.20
2019-04-04T00:21:50.718Z,22.20
2019-04-04T00:24:20.964Z,22.22
2019-04-04T00:26:51.348Z,22.19
2019-04-04T00:29:22.745Z,22.19
2019-04-04T00:31:53.063Z,22.19
2019-04-04T00:34:23.357Z,22.20
2019-04-04T00:36:53.710Z,22.17
2019-04-04T00:39:25.036Z,22.16
2019-04-04T00:41:55.571Z,22.16
2019-04-04T00:44:25.851Z,22.18
2019-04-04T00:46:56.325Z,22.18
2019-04-04T00:49:26.644Z,22.20
2019-04-04T00:51:56.897Z,22.18
2019-04-04T00:54:27.262Z,22.18
2019-04-04T00:56:57.577Z,22.17
2019-04-04T00:59:27.909Z,22.18
2019-04-04T01:01:58.281Z,22.18
2019-04-04T01:04:30.768Z,22.20
2019-04-04T01:07:05.045Z,22.19
2019-04-04T01:09:38.269Z,22.19
2019-04-04T01:12:08.653Z,22.19
2019-04-04T01:14:38.956Z,22.17
2019-04-04T01:17:09.205Z,22.18
2019-04-04T01:19:39.568Z,22.19
2019-04-04T01:22:09.821Z,22.18
2019-04-04T01:24:40.214Z,22.17
2019-04-04T01:27:10.512Z,22.17
2019-04-04T01:29:41.453Z,22.17
2019-04-04T01:32:11.991Z,22.16
2019-04-04T01:34:42.382Z,22.16
2019-04-04T01:37:12.678Z,22.16
2019-04-04T01:39:43.014Z,22.17
2019-04-04T01:42:13.338Z,22.17
2019-04-04T01:44:43.640Z,22.18
2019-04-04T01:47:16.649Z,22.17
2019-04-04T01:49:45.953Z,22.17
2019-04-04T01:52:18.634Z,22.17
2019-04-04T01:54:48.984Z,22.17
2019-04-04T01:57:19.281Z,22.17
2019-04-04T01:59:49.573Z,22.20
2019-04-04T02:02:19.853Z,22.19
2019-04-04T02:04:50.064Z,22.19
2019-04-04T02:07:20.289Z,22.19
2019-04-04T02:09:50.610Z,22.21
2019-04-04T02:12:20.920Z,22.19
2019-04-04T02:14:51.314Z,22.17
2019-04-04T02:17:22.282Z,22.15
2019-04-04T02:19:55.579Z,22.12
2019-04-04T02:22:25.124Z,22.17
2019-04-04T02:24:55.490Z,22.18
2019-04-04T02:27:25.749Z,22.19
2019-04-04T02:29:57.050Z,22.17
2019-04-04T02:32:27.810Z,22.19
2019-04-04T02:34:58.055Z,22.18
2019-04-04T02:37:29.523Z,22.17
2019-04-04T02:39:59.767Z,22.18
2019-04-04T02:42:30.026Z,22.18
2019-04-04T02:45:00.419Z,22.22
2019-04-04T02:47:31.824Z,22.20
2019-04-04T02:50:05.578Z,22.20
2019-04-04T02:52:35.791Z,22.19
2019-04-04T02:55:06.445Z,22.22
2019-04-04T02:57:41.167Z,22.21
2019-04-04T03:00:08.565Z,22.21
2019-04-04T03:02:39.227Z,22.18
2019-04-04T03:05:09.476Z,22.17
2019-04-04T03:07:39.764Z,22.17
2019-04-04T03:10:15.311Z,22.16
2019-04-04T03:12:43.035Z,22.18
2019-04-04T03:15:13.318Z,22.18
2019-04-04T03:17:44.639Z,22.19
2019-04-04T03:20:17.303Z,22.14
2019-04-04T03:22:46.917Z,22.13
2019-04-04T03:25:17.162Z,22.11
2019-04-04T03:27:47.411Z,22.06
2019-04-04T03:30:17.858Z,22.08
2019-04-04T03:32:54.186Z,22.07
2019-04-04T03:35:25.961Z,22.08
2019-04-04T03:37:52.187Z,22.09
2019-04-04T03:40:25.717Z,22.08
2019-04-04T03:42:55.645Z,22.07
2019-04-04T03:45:27.350Z,22.07
2019-04-04T03:47:59.466Z,22.08
2019-04-04T03:50:30.702Z,22.10
2019-04-04T03:53:06.279Z,22.07
2019-04-04T03:55:36.652Z,22.09
2019-04-04T03:58:09.974Z,22.03
2019-04-04T04:00:40.741Z,22.04
2019-04-04T04:03:11.103Z,22.06
2019-04-04T04:05:41.384Z,22.07
2019-04-04T04:08:11.624Z,22.05
2019-04-04T04:10:42.932Z,22.06
2019-04-04T04:13:16.070Z,22.07
2019-04-04T04:15:46.268Z,22.05
2019-04-04T04:18:20.224Z,22.05
2019-04-04T04:20:50.230Z,22.06
2019-04-04T04:23:23.211Z,22.04
2019-04-04T04:25:52.492Z,22.02
2019-04-04T04:28:22.826Z,22.03
2019-04-04T04:30:53.091Z,22.04
2019-04-04T04:33:24.199Z,22.03
2019-04-04T04:35:54.800Z,22.00
2019-04-04T04:38:26.886Z,22.03
2019-04-04T04:40:57.142Z,22.01
2019-04-04T04:43:32.403Z,22.02
2019-04-04T04:45:59.422Z,22.02
2019-04-04T04:48:31.715Z,22.03
2019-04-04T04:51:03.280Z,22.04
2019-04-04T04:53:33.518Z,22.02
2019-04-04T04:56:03.821Z,22.03
2019-04-04T04:58:34.016Z,22.04
2019-04-04T05:01:04.330Z,22.06
2019-04-04T05:03:34.592Z,22.06
2019-04-04T05:06:04.829Z,22.09
2019-04-04T05:08:35.090Z,22.07
2019-04-04T05:11:05.400Z,22.05
2019-04-04T05:13:35.686Z,22.02
2019-04-04T05:16:08.894Z,22.02
2019-04-04T05:18:38.114Z,22.03
2019-04-04T05:21:08.321Z,22.02
2019-04-04T05:23:38.618Z,22.05
2019-04-04T05:26:09.722Z,22.06
2019-04-04T05:28:43.324Z,22.07
2019-04-04T05:31:13.528Z,22.06
2019-04-04T05:33:44.056Z,22.08
2019-04-04T05:36:14.417Z,22.08
2019-04-04T05:38:47.283Z,22.08
2019-04-04T05:41:17.370Z,22.07
2019-04-04T05:43:47.747Z,22.11
2019-04-04T05:46:19.036Z,22.12
2019-04-04T05:48:49.953Z,22.11
2019-04-04T05:51:20.155Z,22.12
2019-04-04T05:53:50.387Z,22.15
2019-04-04T05:56:20.606Z,22.11
2019-04-04T05:58:52.798Z,22.13
2019-04-04T06:01:23.195Z,22.13
2019-04-04T06:03:55.309Z,22.17
2019-04-04T06:06:25.471Z,22.15
2019-04-04T06:08:55.780Z,22.17
2019-04-04T06:11:27.381Z,22.18
2019-04-04T06:13:59.041Z,22.15
2019-04-04T06:16:29.685Z,22.13
2019-04-04T06:18:59.965Z,22.13
2019-04-04T06:21:30.283Z,22.15
2019-04-04T06:24:00.589Z,22.17
2019-04-04T06:26:30.928Z,22.18
2019-04-04T06:29:01.231Z,22.18
2019-04-04T06:31:31.562Z,22.19
2019-04-04T06:34:01.861Z,22.20
2019-04-04T06:36:32.182Z,22.20
2019-04-04T06:39:02.441Z,22.19
2019-04-04T06:41:34.296Z,22.22
2019-04-04T06:44:04.675Z,22.21
2019-04-04T06:46:35.003Z,22.24
2019-04-04T06:49:05.432Z,22.22
2019-04-04T06:51:36.049Z,22.23
2019-04-04T06:54:06.362Z,22.24
2019-04-04T06:56:36.796Z,22.23
2019-04-04T06:59:07.074Z,22.25
2019-04-04T07:01:37.322Z,22.26
2019-04-04T07:04:07.620Z,22.26
2019-04-04T07:06:37.912Z,22.25
2019-04-04T07:09:08.708Z,22.28
2019-04-04T07:11:39.093Z,22.29
2019-04-04T07:14:09.276Z,22.27
2019-04-04T07:16:39.618Z,22.26
2019-04-04T07:19:09.939Z,22.27
2019-04-04T07:21:40.266Z,22.27
2019-04-04T07:24:10.818Z,22.29
2019-04-04T07:26:41.135Z,22.27
2019-04-04T07:29:11.417Z,22.27
2019-04-04T07:31:41.756Z,22.27
2019-04-04T07:34:13.733Z,22.30
2019-04-04T07:36:45.731Z,22.29
2019-04-04T07:39:18.349Z,22.29
2019-04-04T07:41:48.547Z,22.30
2019-04-04T07:44:23.007Z,22.29
2019-04-04T07:46:52.943Z,22.29
2019-04-04T07:49:23.931Z,22.31
2019-04-04T07:51:54.391Z,22.31
2019-04-04T07:54:24.805Z,22.31
2019-04-04T07:56:55.179Z,22.31
2019-04-04T07:59:25.443Z,22.31
2019-04-04T08:01:55.740Z,22.30
2019-04-04T08:04:26.052Z,22.30
2019-04-04T08:06:56.618Z,22.30
2019-04-04T08:09:26.912Z,22.33
2019-04-04T08:11:57.235Z,22.34
2019-04-04T08:14:27.883Z,22.34
2019-04-04T08:16:58.145Z,22.34
2019-04-04T08:19:28.464Z,22.31
2019-04-04T08:21:58.836Z,22.31
2019-04-04T08:24:29.445Z,22.31
2019-04-04T08:26:59.686Z,22.31
2019-04-04T08:29:29.989Z,22.31
2019-04-04T08:32:00.307Z,22.31
2019-04-04T08:34:30.924Z,22.29
2019-04-04T08:37:01.462Z,22.29
2019-04-04T08:39:31.800Z,22.30
2019-04-04T08:42:02.187Z,22.33
2019-04-04T08:44:32.446Z,22.33
2019-04-04T08:47:02.821Z,22.32
2019-04-04T08:49:33.102Z,22.30
2019-04-04T08:52:15.852Z,22.30
2019-04-04T08:54:35.433Z,22.29
2019-04-04T08:57:05.749Z,22.29
2019-04-04T08:59:36.044Z,22.30
2019-04-04T09:02:06.333Z,22.30
2019-04-04T09:04:38.427Z,22.29
2019-04-04T09:07:09.908Z,22.31
2019-04-04T09:09:40.281Z,22.33
2019-04-04T09:12:10.676Z,22.30
2019-04-04T09:14:41.376Z,22.29
2019-04-04T09:17:11.759Z,22.28
2019-04-04T09:19:43.035Z,22.26
2019-04-04T09:22:14.318Z,22.29
2019-04-04T09:24:44.613Z,22.29
2019-04-04T09:27:16.538Z,22.29
2019-04-04T09:29:46.889Z,22.29
2019-04-04T09:32:18.187Z,22.28
2019-04-04T09:34:48.449Z,22.30
2019-04-04T09:37:18.809Z,22.30
2019-04-04T09:39:49.030Z,22.29
2019-04-04T09:42:20.329Z,22.30
2019-04-04T09:44:50.633Z,22.29
2019-04-04T09:47:20.827Z,22.27
2019-04-04T09:49:51.133Z,22.29
2019-04-04T09:52:21.428Z,22.30
2019-04-04T09:54:51.761Z,22.30
2019-04-04T09:57:22.018Z,22.29
2019-04-04T09:59:52.642Z,22.31
2019-04-04T10:02:22.905Z,22.29
2019-04-04T10:04:52.195Z,22.29
2019-04-04T10:07:21.434Z,22.27
2019-04-04T10:09:49.035Z,22.29
2019-04-04T10:12:16.653Z,22.29
2019-04-04T10:14:44.529Z,22.30
2019-04-04T10:17:14.846Z,22.29
2019-04-04T10:19:45.164Z,22.30
2019-04-04T10:22:15.474Z,22.28
2019-04-04T10:24:48.092Z,22.27
2019-04-04T10:27:18.389Z,22.27
2019-04-04T10:29:48.680Z,22.28
2019-04-04T10:32:18.963Z,22.28
2019-04-04T10:34:49.307Z,22.29
2019-04-04T10:37:19.578Z,22.27
2019-04-04T10:39:52.469Z,22.27
2019-04-04T10:42:22.720Z,22.27
2019-04-04T10:44:52.981Z,22.29
2019-04-04T10:47:23.250Z,22.27
2019-04-04T10:49:53.581Z,22.26
2019-04-04T10:52:23.844Z,22.25
2019-04-04T10:54:54.170Z,22.25
2019-04-04T10:57:24.451Z,22.22
2019-04-04T10:59:54.931Z,22.22
2019-04-04T11:02:25.254Z,22.22
2019-04-04T11:04:55.532Z,22.22
2019-04-04T11:07:25.854Z,22.19
2019-04-04T11:09:57.114Z,22.19
2019-04-04T11:12:27.438Z,22.20
2019-04-04T11:14:57.721Z,22.18
2019-04-04T11:17:28.652Z,22.17
2019-04-04T11:19:59.006Z,22.20
2019-04-04T11:22:29.198Z,22.17
2019-04-04T11:24:59.518Z,22.15
2019-04-04T11:27:29.790Z,22.14
2019-04-04T11:30:00.178Z,22.15
2019-04-04T11:32:30.469Z,22.19
2019-04-04T11:35:00.794Z,22.17
2019-04-04T11:37:31.109Z,22.16
2019-04-04T11:40:01.440Z,22.13
2019-04-04T11:42:31.798Z,22.16
2019-04-04T11:45:02.037Z,22.18
2019-04-04T11:47:33.395Z,22.16
2019-04-04T11:50:03.730Z,22.15
2019-04-04T11:52:33.998Z,22.17
2019-04-04T11:55:05.495Z,22.15
2019-04-04T11:57:36.441Z,22.17
2019-04-04T12:00:07.188Z,22.14
2019-04-04T12:02:37.474Z,22.15
2019-04-04T12:05:08.009Z,22.15
2019-04-04T12:07:38.730Z,22.16
2019-04-04T12:10:09.085Z,22.12
2019-04-04T12:12:39.545Z,22.10
2019-04-04T12:15:10.105Z,22.09
2019-04-04T12:17:40.424Z,22.09
2019-04-04T12:20:10.713Z,22.09
2019-04-04T12:22:41.325Z,22.10
2019-04-04T12:25:13.314Z,22.06
2019-04-04T12:27:43.708Z,22.06
2019-04-04T12:30:14.406Z,22.08
2019-04-04T12:32:44.744Z,22.04
2019-04-04T12:35:15.079Z,22.05
2019-04-04T12:37:45.683Z,22.03
2019-04-04T12:40:20.687Z,22.02
2019-04-04T12:42:48.316Z,22.03
2019-04-04T12:45:18.680Z,22.02
2019-04-04T12:47:48.990Z,22.04
2019-04-04T12:50:19.498Z,22.03
2019-04-04T12:52:49.845Z,22.01
2019-04-04T12:55:20.269Z,21.97
2019-04-04T12:57:52.509Z,22.00
2019-04-04T13:00:22.907Z,21.98
2019-04-04T13:02:53.332Z,21.97
2019-04-04T13:05:23.679Z,21.96
2019-04-04T13:07:54.180Z,21.96
2019-04-04T13:10:33.040Z,21.96
2019-04-04T13:12:56.578Z,21.94
2019-04-04T13:15:28.883Z,21.95
2019-04-04T13:17:59.521Z,21.93
2019-04-04T13:20:32.209Z,21.91
2019-04-04T13:23:02.886Z,21.89
2019-04-04T13:25:33.176Z,21.85
2019-04-04T13:28:03.606Z,21.84
2019-04-04T13:30:34.115Z,21.83
2019-04-04T13:33:04.485Z,21.84
2019-04-04T13:35:37.659Z,21.88
2019-04-04T13:38:07.037Z,21.87
2019-04-04T13:40:45.452Z,21.85
2019-04-04T13:43:09.287Z,21.83
2019-04-04T13:45:39.571Z,21.84
2019-04-04T13:48:12.429Z,21.85
2019-04-04T13:50:41.825Z,21.86
2019-04-04T13:53:12.133Z,21.86
2019-04-04T13:55:42.649Z,21.85
2019-04-04T13:58:13.191Z,21.85
2019-04-04T14:00:43.579Z,21.87
2019-04-04T14:03:13.870Z,21.85
2019-04-04T14:05:44.153Z,21.86
2019-04-04T14:08:14.639Z,21.84
2019-04-04T14:10:57.261Z,21.86
2019-04-04T14:13:17.674Z,21.86
2019-04-04T14:15:47.971Z,21.88
2019-04-04T14:18:38.206Z,21.87
2019-04-04T14:21:03.734Z,21.85
2019-04-04T14:23:29.427Z,21.85
2019-04-04T14:26:00.564Z,21.84
2019-04-04T14:28:31.189Z,21.83
2019-04-04T14:31:01.589Z,21.86
2019-04-04T14:33:31.959Z,21.88
2019-04-04T14:36:02.536Z,21.88
2019-04-04T14:38:32.904Z,21.88
2019-04-04T14:41:11.275Z,21.88
2019-04-04T14:43:35.524Z,21.87
2019-04-04T14:46:05.895Z,21.86
2019-04-04T14:48:36.241Z,21.84
2019-04-04T14:51:06.630Z,21.85
2019-04-04T14:53:36.908Z,21.83
2019-04-04T14:56:07.181Z,21.83
2019-04-04T14:58:37.527Z,21.83
2019-04-04T15:01:07.858Z,21.86
2019-04-04T15:03:38.190Z,21.86
2019-04-04T15:06:09.500Z,21.88
2019-04-04T15:08:40.190Z,21.89
2019-04-04T15:11:23.093Z,21.89
2019-04-04T15:13:42.461Z,21.88
2019-04-04T15:16:16.792Z,21.88
2019-04-04T15:18:48.164Z,21.88
2019-04-04T15:21:18.364Z,21.88
2019-04-04T15:33:50.581Z,21.83
2019-04-04T15:36:21.644Z,21.81
2019-04-04T15:38:53.534Z,21.80
2019-04-04T15:41:35.929Z,21.78
2019-04-04T15:43:56.023Z,21.78
2019-04-04T15:46:26.483Z,21.82
2019-04-04T15:48:56.839Z,21.85
2019-04-04T15:51:27.221Z,21.85
2019-04-04T15:53:57.600Z,21.87
2019-04-04T15:56:30.957Z,21.86
2019-04-04T15:59:01.456Z,21.86
2019-04-04T16:01:31.844Z,21.86
2019-04-04T16:04:02.241Z,21.85
2019-04-04T16:06:32.627Z,21.87
2019-04-04T16:09:04.035Z,21.87
2019-04-04T16:11:34.448Z,21.86
2019-04-04T16:14:04.742Z,21.89
2019-04-04T16:16:36.437Z,21.88
2019-04-04T16:19:06.972Z,21.88
2019-04-04T16:21:37.379Z,21.89
2019-04-04T16:24:08.201Z,21.88
2019-04-04T16:26:38.571Z,21.89
2019-04-04T16:29:08.968Z,21.87
2019-04-04T16:31:39.288Z,21.89
2019-04-04T16:34:10.661Z,21.88
2019-04-04T16:36:41.034Z,21.89
2019-04-04T16:39:11.877Z,21.88
2019-04-04T16:41:42.226Z,21.89
2019-04-04T16:44:12.558Z,21.90
2019-04-04T16:46:42.882Z,21.89
2019-04-04T16:49:13.159Z,21.89
2019-04-04T16:51:43.544Z,21.90
2019-04-04T16:54:14.854Z,21.89
2019-04-04T16:56:46.405Z,21.89
2019-04-04T16:59:16.809Z,21.91
2019-04-04T17:01:47.192Z,21.89
2019-04-04T17:04:17.518Z,21.90
2019-04-04T17:06:47.909Z,21.89
2019-04-04T17:09:18.275Z,21.90
2019-04-04T17:11:49.758Z,21.87
2019-04-04T17:14:20.076Z,21.87
2019-04-04T17:16:50.403Z,21.87
2019-04-04T17:19:25.195Z,21.88
2019-04-04T17:21:55.576Z,21.87
2019-04-04T17:24:27.595Z,21.87
2019-04-04T17:26:57.853Z,21.88
2019-04-04T17:29:28.121Z,21.89
2019-04-04T17:32:02.977Z,21.88
2019-04-04T17:34:33.385Z,21.88
2019-04-04T17:37:03.874Z,21.89
2019-04-04T17:39:34.751Z,21.89
2019-04-04T17:42:05.731Z,21.89
2019-04-04T17:44:36.573Z,21.91
2019-04-04T17:47:06.915Z,21.90
2019-04-04T17:49:37.589Z,21.92
2019-04-04T17:52:07.957Z,21.90
2019-04-04T17:54:39.595Z,21.92
2019-04-04T17:57:10.901Z,21.91
2019-04-04T17:59:41.566Z,21.84
2019-04-04T18:02:11.875Z,21.79
2019-04-04T18:04:48.553Z,21.81
2019-04-04T18:07:16.521Z,21.84
2019-04-04T18:09:50.629Z,21.87
2019-04-04T18:12:21.920Z,21.90
2019-04-04T18:14:56.504Z,21.89
2019-04-04T18:17:26.417Z,21.90
2019-04-04T18:19:56.807Z,21.92
2019-04-04T18:22:28.654Z,21.90
2019-04-04T18:25:00.345Z,21.90
2019-04-04T18:27:30.651Z,21.89
2019-04-04T18:30:01.053Z,21.89
2019-04-04T18:32:34.258Z,21.93
2019-04-04T18:35:04.874Z,21.91
2019-04-04T18:37:35.541Z,21.89
2019-04-04T18:40:07.861Z,21.93
2019-04-04T18:42:38.297Z,21.93
2019-04-04T18:45:08.649Z,21.92
2019-04-04T18:47:39.036Z,21.86
2019-04-04T18:50:09.350Z,21.88
2019-04-04T18:52:39.662Z,21.89
2019-04-04T18:55:19.542Z,21.89
2019-04-04T18:57:42.276Z,21.91
2019-04-04T19:00:12.556Z,21.93
2019-04-04T19:02:43.071Z,21.93
2019-04-04T19:05:13.385Z,21.93
2019-04-04T19:07:43.726Z,21.93
2019-04-04T19:10:14.094Z,21.94
2019-04-04T19:12:44.421Z,21.94
2019-04-04T19:15:14.863Z,21.97
2019-04-04T19:17:45.137Z,21.96
2019-04-04T19:20:15.494Z,21.97
2019-04-04T19:22:47.240Z,21.98
2019-04-04T19:25:19.269Z,21.98
2019-04-04T19:27:49.709Z,22.00
2019-04-04T19:30:20.492Z,22.00
2019-04-04T19:32:51.102Z,22.02
2019-04-04T19:35:21.680Z,22.02
2019-04-04T19:38:00.089Z,22.02
2019-04-04T19:40:24.330Z,22.02
2019-04-04T19:42:54.786Z,22.00
2019-04-04T19:45:25.350Z,22.03
2019-04-04T19:47:55.669Z,22.05
2019-04-04T19:50:26.066Z,22.05
2019-04-04T19:52:56.404Z,22.06
2019-04-04T19:55:26.756Z,22.07
2019-04-04T19:57:57.364Z,22.07
2019-04-04T20:00:27.665Z,22.07
2019-04-04T20:02:58.026Z,22.08
2019-04-04T20:05:29.560Z,22.09
2019-04-04T20:08:00.056Z,22.10
2019-04-04T20:10:31.476Z,22.09
2019-04-04T20:13:01.836Z,22.12
2019-04-04T20:15:32.164Z,22.13
2019-04-04T20:18:02.484Z,22.15
2019-04-04T20:20:32.798Z,22.16
2019-04-04T20:23:04.681Z,22.17
2019-04-04T20:25:34.982Z,22.18
2019-04-04T20:28:05.317Z,22.19
2019-04-04T20:30:37.194Z,22.22
2019-04-04T20:33:07.753Z,22.23
2019-04-04T20:35:38.042Z,22.22
2019-04-04T20:38:08.460Z,22.22
2019-04-04T20:40:38.872Z,22.23
2019-04-04T20:43:09.233Z,22.23
2019-04-04T20:45:40.138Z,22.25
2019-04-04T20:48:10.489Z,22.24
2019-04-04T20:50:43.093Z,22.24
2019-04-04T20:53:13.418Z,22.23
2019-04-04T20:55:43.760Z,22.25
2019-04-04T20:58:14.092Z,22.24
2019-04-04T21:00:44.374Z,22.24
2019-04-04T21:03:14.697Z,22.25
2019-04-04T21:05:45.024Z,22.26
2019-04-04T21:08:15.530Z,22.23
2019-04-04T21:10:45.864Z,22.25
2019-04-04T21:13:16.223Z,22.25
2019-04-04T21:15:46.510Z,22.27
2019-04-04T21:18:16.762Z,22.26
2019-04-04T21:20:48.701Z,22.28
2019-04-04T21:23:20.266Z,22.28
2019-04-04T21:25:50.599Z,22.27
2019-04-04T21:28:20.981Z,22.27
2019-04-04T21:30:51.321Z,22.26
2019-04-04T21:33:21.699Z,22.27
2019-04-04T21:35:52.200Z,22.27
2019-04-04T21:38:22.491Z,22.27
2019-04-04T21:40:52.829Z,22.26
2019-04-04T21:43:23.098Z,22.25
2019-04-04T21:45:53.458Z,22.25
2019-04-04T21:48:23.989Z,22.25
2019-04-04T21:50:54.289Z,22.24
2019-04-04T21:53:24.721Z,22.25
2019-04-04T21:56:09.397Z,22.25
2019-04-04T21:58:41.466Z,22.27
2019-04-04T22:01:20.698Z,22.26
2019-04-04T22:03:52.630Z,22.24
2019-04-04T22:06:22.910Z,22.24
2019-04-04T22:09:04.754Z,22.25
2019-04-04T22:11:36.843Z,22.25
2019-04-04T22:14:07.755Z,22.24
2019-04-04T22:16:39.251Z,22.23
2019-04-04T22:19:09.495Z,22.23
2019-04-04T22:21:39.801Z,22.22
2019-04-04T22:24:10.104Z,22.23
2019-04-04T22:26:40.428Z,22.23
2019-04-04T22:29:11.800Z,22.21
2019-04-04T22:31:42.127Z,22.21
2019-04-04T22:34:12.376Z,22.21
2019-04-04T22:36:42.881Z,22.20
2019-04-04T22:39:13.063Z,22.18
2019-04-04T22:41:43.398Z,22.17
2019-04-04T22:44:13.654Z,22.16
2019-04-04T22:46:44.290Z,22.14
2019-04-04T22:49:14.572Z,22.16
2019-04-04T22:51:44.988Z,22.16
2019-04-04T22:54:15.239Z,22.16
2019-04-04T22:56:45.569Z,22.16
2019-04-04T22:59:15.891Z,22.14
2019-04-04T23:01:46.236Z,22.13
2019-04-04T23:04:16.523Z,22.15
2019-04-04T23:06:49.489Z,22.14
2019-04-04T23:09:19.755Z,22.13
2019-04-04T23:11:50.093Z,22.13
2019-04-04T23:14:20.369Z,22.12
2019-04-04T23:16:50.705Z,22.11
2019-04-04T23:19:21.013Z,22.12
2019-04-04T23:21:51.283Z,22.11
2019-04-04T23:24:21.671Z,22.10
2019-04-04T23:26:52.006Z,22.10
2019-04-04T23:29:22.341Z,22.09
2019-04-04T23:31:52.636Z,22.08
2019-04-04T23:34:22.895Z,22.09
2019-04-04T23:36:54.055Z,22.07
2019-04-04T23:39:24.239Z,22.08
2019-04-04T23:41:54.513Z,22.09
2019-04-04T23:44:24.888Z,22.07
2019-04-04T23:46:55.189Z,22.07
2019-04-04T23:49:25.643Z,22.07
2019-04-04T23:51:55.911Z,22.05
2019-04-04T23:54:26.245Z,22.05
2019-04-04T23:56:56.459Z,22.06
2019-04-04T23:59:28.406Z,22.05
